Time;durP1;ratioP1;P1;durP2;ratioP2;P2;SDS_P1;SDS_P2;PMS_P1;PMS_P2;Temp;Humidity;BMP_temperature;BMP_pressure;BME280_temperature;BME280_humidity;BME280_pressure;Samples;Min_cycle;Max_cycle;Signal;HPM_P1;HPM_P2
2021/08/12 00:00:17;;;;;;;4.00;3.60;;;22.60;59.90;;;;;;3157869;28;20051;-76
2021/08/12 00:01:49;;;;;;;4.82;4.30;;;22.60;59.90;;;;;;3158766;28;20059;-75
2021/08/12 00:03:20;;;;;;;4.72;3.85;;;22.60;59.90;;;;;;3158834;28;20052;-75
2021/08/12 00:04:52;;;;;;;4.93;4.10;;;22.60;59.90;;;;;;3158425;28;20043;-75
2021/08/12 00:06:24;;;;;;;4.78;4.10;;;22.60;59.90;;;;;;3159251;28;20109;-75
2021/08/12 00:07:55;;;;;;;6.10;3.80;;;22.60;59.90;;;;;;3158775;28;20101;-75
2021/08/12 00:09:27;;;;;;;5.32;4.10;;;22.60;59.80;;;;;;3158436;28;20059;-75
2021/08/12 00:10:59;;;;;;;4.72;4.20;;;22.60;59.80;;;;;;3158187;28;20448;-75
2021/08/12 00:12:30;;;;;;;5.47;4.20;;;22.60;59.80;;;;;;3146477;28;20060;-75
2021/08/12 00:14:02;;;;;;;4.57;4.07;;;22.60;59.80;;;;;;3154649;28;20401;-75
2021/08/12 00:15:35;;;;;;;4.82;4.18;;;22.60;59.80;;;;;;3153201;28;20472;-75
2021/08/12 00:17:07;;;;;;;4.60;4.00;;;22.60;59.80;;;;;;3146655;28;20079;-75
2021/08/12 00:18:39;;;;;;;5.18;4.05;;;22.60;59.80;;;;;;3146498;28;20049;-75
2021/08/12 00:20:12;;;;;;;5.40;4.07;;;22.60;59.80;;;;;;3145623;28;20072;-75
2021/08/12 00:21:43;;;;;;;;;;;22.60;59.80;;;;;;3146644;28;20060;-75
2021/08/12 00:23:15;;;;;;;4.57;4.18;;;22.60;59.90;;;;;;3146303;28;19920;-74
2021/08/12 00:24:46;;;;;;;6.10;4.13;;;22.60;59.70;;;;;;3133422;28;20506;-75
2021/08/12 00:26:18;;;;;;;4.80;4.30;;;22.60;59.70;;;;;;3144667;28;20079;-75
2021/08/12 00:27:50;;;;;;;5.28;3.97;;;22.50;59.70;;;;;;3145860;28;20045;-75
2021/08/12 00:29:21;;;;;;;4.43;3.92;;;22.60;59.80;;;;;;3143825;28;20053;-75
2021/08/12 00:30:54;;;;;;;5.20;4.43;;;22.60;59.70;;;;;;3132151;28;20049;-75
2021/08/12 00:32:26;;;;;;;5.93;4.35;;;22.60;59.70;;;;;;3133533;28;20071;-75
2021/08/12 00:33:58;;;;;;;5.35;4.40;;;22.50;59.70;;;;;;3145043;28;20059;-75
2021/08/12 00:35:30;;;;;;;5.10;3.97;;;22.50;59.70;;;;;;3145302;28;20044;-75
2021/08/12 00:37:04;;;;;;;4.50;4.03;;;22.50;59.70;;;;;;3145714;28;20059;-75
2021/08/12 00:38:36;;;;;;;4.28;3.70;;;22.50;59.70;;;;;;3145660;28;20107;-74
2021/08/12 00:40:08;;;;;;;5.15;4.15;;;22.50;59.60;;;;;;3145558;28;20045;-75
2021/08/12 00:41:40;;;;;;;4.88;4.35;;;22.50;59.70;;;;;;3150170;28;20063;-75
2021/08/12 00:43:11;;;;;;;4.95;4.10;;;22.50;59.70;;;;;;3145328;28;20053;-75
2021/08/12 00:44:43;;;;;;;5.10;4.03;;;22.50;59.70;;;;;;3144968;28;20885;-75
2021/08/12 00:46:16;;;;;;;4.07;3.67;;;22.50;59.70;;;;;;3145033;28;20135;-75
2021/08/12 00:47:48;;;;;;;6.13;4.20;;;22.50;59.60;;;;;;3145609;28;20203;-76
2021/08/12 00:49:20;;;;;;;4.45;4.00;;;22.50;59.60;;;;;;3145045;28;20052;-75
2021/08/12 00:50:51;;;;;;;4.70;4.30;;;22.50;59.60;;;;;;3145132;28;20702;-75
2021/08/12 00:52:23;;;;;;;4.53;4.13;;;22.50;59.70;;;;;;3145694;28;20409;-76
2021/08/12 00:53:55;;;;;;;4.90;4.20;;;22.50;59.60;;;;;;3145496;28;20449;-75
2021/08/12 00:55:26;;;;;;;4.70;4.20;;;22.50;59.60;;;;;;3144753;28;20052;-75
2021/08/12 00:56:58;;;;;;;4.57;4.13;;;22.50;59.60;;;;;;3145798;28;20053;-75
2021/08/12 00:58:30;;;;;;;6.25;3.90;;;22.50;59.60;;;;;;3145813;28;20060;-75
2021/08/12 01:00:03;;;;;;;5.22;4.18;;;22.50;59.60;;;;;;3145061;28;20044;-75
2021/08/12 01:01:35;;;;;;;;;;;22.50;59.60;;;;;;3144694;28;20052;-75
2021/08/12 01:03:09;;;;;;;5.38;4.25;;;22.40;59.60;;;;;;3145745;28;19920;-75
2021/08/12 01:04:41;;;;;;;4.53;3.97;;;22.50;59.50;;;;;;3144969;28;20547;-75
2021/08/12 01:06:13;;;;;;;4.90;4.13;;;22.40;59.50;;;;;;3145522;28;20056;-75
2021/08/12 01:07:51;;;;;;;4.13;3.73;;;22.40;59.50;;;;;;3145360;28;20055;-74
2021/08/12 01:09:28;;;;;;;4.63;4.10;;;22.40;59.60;;;;;;3145300;28;20299;-75
2021/08/12 01:11:06;;;;;;;6.97;4.30;;;22.40;59.60;;;;;;3150161;28;20048;-75
2021/08/12 01:12:44;;;;;;;4.28;3.88;;;22.40;59.60;;;;;;3145439;28;20048;-75
2021/08/12 01:14:22;;;;;;;4.55;4.00;;;22.40;60.20;;;;;;3144811;28;20063;-75
2021/08/12 01:15:55;;;;;;;4.25;3.83;;;22.40;59.60;;;;;;3144421;28;20056;-75
2021/08/12 01:17:30;;;;;;;;;;;22.40;59.60;;;;;;3146136;28;20421;-75
2021/08/12 01:19:04;;;;;;;4.88;3.83;;;22.40;59.60;;;;;;3145213;28;19924;-75
2021/08/12 01:21:18;;;;;;;4.25;3.78;;;22.40;59.50;;;;;;3144101;28;20041;-75
2021/08/12 01:22:50;;;;;;;5.35;4.38;;;22.40;59.50;;;;;;3144778;28;20051;-75
2021/08/12 01:24:22;;;;;;;4.97;3.72;;;22.40;59.40;;;;;;3144284;28;20048;-75
2021/08/12 01:25:54;;;;;;;5.38;4.28;;;22.40;59.50;;;;;;3145200;28;20059;-75
2021/08/12 01:27:26;;;;;;;4.80;3.80;;;22.40;59.50;;;;;;3145286;28;20053;-75
2021/08/12 01:28:58;;;;;;;4.30;3.90;;;22.40;59.50;;;;;;3145426;28;20294;-75
2021/08/12 01:30:31;;;;;;;4.18;3.78;;;22.30;59.50;;;;;;3143174;28;20048;-75
2021/08/12 01:32:04;;;;;;;4.43;3.90;;;22.30;59.50;;;;;;3145397;28;20044;-75
2021/08/12 01:33:43;;;;;;;5.65;4.03;;;22.30;59.50;;;;;;3145297;28;20044;-75
2021/08/12 01:35:17;;;;;;;5.03;4.30;;;22.30;59.50;;;;;;3144484;28;20048;-75
2021/08/12 01:36:53;;;;;;;5.50;3.85;;;22.30;59.60;;;;;;3144846;28;20060;-75
2021/08/12 01:38:27;;;;;;;4.53;3.90;;;22.40;59.70;;;;;;3145513;28;20056;-75
2021/08/12 01:39:58;;;;;;;4.88;3.88;;;22.30;59.60;;;;;;3144391;28;20135;-75
2021/08/12 01:41:30;;;;;;;4.68;4.13;;;22.30;59.60;;;;;;3144647;28;20048;-75
2021/08/12 01:43:04;;;;;;;4.72;3.95;;;22.30;59.60;;;;;;3144640;28;20048;-75
2021/08/12 01:44:36;;;;;;;4.97;4.20;;;22.30;60.20;;;;;;3144887;28;20408;-75
2021/08/12 01:46:08;;;;;;;4.45;4.05;;;22.30;59.60;;;;;;3144257;28;20525;-75
2021/08/12 01:47:39;;;;;;;5.20;4.40;;;22.30;59.60;;;;;;3145058;28;20044;-75
2021/08/12 01:49:11;;;;;;;5.10;4.10;;;22.30;59.60;;;;;;3144451;28;20060;-75
2021/08/12 01:50:44;;;;;;;4.63;3.92;;;22.30;59.60;;;;;;3144624;28;20056;-75
2021/08/12 01:52:16;;;;;;;5.38;4.22;;;22.30;59.60;;;;;;3144713;28;20048;-75
2021/08/12 01:53:48;;;;;;;4.97;4.15;;;22.30;59.60;;;;;;3145070;28;20049;-75
2021/08/12 01:55:21;;;;;;;4.90;4.00;;;22.30;59.50;;;;;;3144339;28;20033;-75
2021/08/12 01:56:53;;;;;;;4.65;4.15;;;22.30;59.60;;;;;;3145045;28;20057;-75
2021/08/12 01:58:25;;;;;;;4.80;4.32;;;22.20;59.60;;;;;;3144409;28;20048;-75
2021/08/12 01:59:57;;;;;;;;;;;22.20;60.20;;;;;;3144918;28;20524;-75
2021/08/12 02:01:29;;;;;;;4.88;3.88;;;22.30;59.60;;;;;;3143651;28;19925;-75
2021/08/12 02:03:00;;;;;;;5.15;4.00;;;22.30;59.50;;;;;;3145213;28;20588;-75
2021/08/12 02:04:32;;;;;;;4.82;4.13;;;22.20;59.50;;;;;;3144418;28;20051;-75
2021/08/12 02:06:05;;;;;;;5.30;4.13;;;22.30;59.60;;;;;;3144555;28;20505;-75
2021/08/12 02:07:37;;;;;;;4.07;3.75;;;22.20;59.50;;;;;;3145222;28;20532;-75
2021/08/12 02:09:09;;;;;;;4.60;4.20;;;22.20;59.50;;;;;;3144511;28;20656;-75
2021/08/12 02:10:41;;;;;;;4.40;4.00;;;22.20;59.50;;;;;;3144408;28;20413;-75
2021/08/12 02:12:13;;;;;;;4.38;3.97;;;22.20;59.50;;;;;;3144625;28;20052;-75
2021/08/12 02:13:44;;;;;;;5.18;4.20;;;22.20;59.50;;;;;;3145052;28;20062;-75
2021/08/12 02:15:16;;;;;;;4.80;4.30;;;22.20;59.50;;;;;;3143552;28;20839;-75
2021/08/12 02:16:48;;;;;;;4.88;4.38;;;22.20;59.50;;;;;;3144585;28;20135;-75
2021/08/12 02:18:19;;;;;;;4.32;3.85;;;22.20;59.50;;;;;;3144652;28;20070;-76
2021/08/12 02:19:51;;;;;;;5.32;3.83;;;22.20;59.50;;;;;;3144602;28;20041;-75
2021/08/12 02:21:25;;;;;;;5.13;3.97;;;22.20;59.50;;;;;;3144359;28;20057;-75
2021/08/12 02:22:59;;;;;;;4.47;4.07;;;22.20;59.50;;;;;;3141025;28;20075;-75
2021/08/12 02:24:34;;;;;;;5.07;4.20;;;22.20;59.50;;;;;;3144438;28;20382;-75
2021/08/12 02:26:08;;;;;;;4.88;4.20;;;22.20;59.50;;;;;;3144668;28;20044;-75
2021/08/12 02:27:42;;;;;;;5.43;3.97;;;22.20;59.50;;;;;;3145089;28;20048;-75
2021/08/12 02:29:14;;;;;;;4.30;3.90;;;22.10;59.40;;;;;;3143955;28;20051;-75
2021/08/12 02:30:46;;;;;;;4.30;3.90;;;22.20;59.50;;;;;;3143343;28;20053;-75
2021/08/12 02:32:16;;;;;;;5.05;4.05;;;22.20;59.50;;;;;;3144849;28;20060;-75
2021/08/12 02:33:49;;;;;;;4.47;4.07;;;22.20;59.50;;;;;;3144799;28;20116;-75
2021/08/12 02:35:21;;;;;;;4.97;4.00;;;22.20;59.40;;;;;;3143862;28;20047;-75
2021/08/12 02:36:54;;;;;;;5.72;4.13;;;22.20;59.40;;;;;;3144972;28;20071;-75
2021/08/12 02:38:26;;;;;;;4.20;3.72;;;22.20;59.40;;;;;;3147154;28;20540;-75
2021/08/12 02:39:58;;;;;;;4.38;3.97;;;22.10;59.40;;;;;;3146770;28;20144;-76
2021/08/12 02:41:29;;;;;;;4.80;4.05;;;22.10;59.30;;;;;;3152004;28;20057;-75
2021/08/12 02:43:01;;;;;;;5.43;4.47;;;22.20;59.30;;;;;;3147182;28;20134;-75
2021/08/12 02:44:33;;;;;;;4.47;4.05;;;22.10;59.30;;;;;;3146809;28;20044;-75
2021/08/12 02:46:05;;;;;;;5.13;4.00;;;22.10;59.20;;;;;;3146238;28;20048;-74
2021/08/12 02:47:36;;;;;;;4.45;4.05;;;22.10;59.20;;;;;;3147301;28;20470;-75
2021/08/12 02:49:08;;;;;;;4.22;3.83;;;22.10;59.20;;;;;;3147220;28;20057;-75
2021/08/12 02:50:41;;;;;;;5.35;4.00;;;22.10;59.30;;;;;;3146620;28;20056;-75
2021/08/12 02:52:14;;;;;;;5.05;4.05;;;22.10;59.30;;;;;;3147026;28;20086;-75
2021/08/12 02:53:46;;;;;;;5.63;3.92;;;22.10;59.30;;;;;;3147059;28;20517;-75
2021/08/12 02:55:18;;;;;;;3.70;3.40;;;22.10;59.20;;;;;;3146585;28;20048;-75
2021/08/12 02:56:49;;;;;;;4.88;3.88;;;22.10;59.20;;;;;;3147245;28;20048;-76
2021/08/12 02:58:21;;;;;;;4.75;3.90;;;22.00;59.20;;;;;;3146965;28;20766;-75
2021/08/12 02:59:53;;;;;;;4.50;3.92;;;22.00;59.20;;;;;;3146602;28;20088;-75
2021/08/12 03:01:24;;;;;;;4.30;3.90;;;22.00;59.20;;;;;;3145822;28;20044;-75
2021/08/12 03:02:56;;;;;;;5.53;4.10;;;22.00;59.20;;;;;;3147190;28;20044;-75
2021/08/12 03:04:28;;;;;;;5.10;4.13;;;22.00;59.20;;;;;;3146369;28;20048;-75
2021/08/12 03:06:00;;;;;;;4.65;3.80;;;22.00;59.20;;;;;;3147198;28;20433;-75
2021/08/12 03:07:34;;;;;;;4.65;3.92;;;22.00;59.20;;;;;;3147034;28;20060;-75
2021/08/12 03:09:05;;;;;;;5.32;3.92;;;22.00;59.20;;;;;;3146869;28;20098;-74
2021/08/12 03:10:39;;;;;;;4.75;4.32;;;22.00;59.30;;;;;;3148596;28;20059;-75
2021/08/12 03:12:11;;;;;;;4.00;3.60;;;22.00;59.30;;;;;;3148720;28;20513;-75
2021/08/12 03:13:43;;;;;;;5.20;3.80;;;22.00;59.30;;;;;;3146697;28;20057;-75
2021/08/12 03:15:14;;;;;;;4.22;3.65;;;22.00;59.20;;;;;;3145018;28;20423;-75
2021/08/12 03:16:46;;;;;;;4.63;4.00;;;22.00;59.30;;;;;;3146827;28;20071;-75
2021/08/12 03:18:18;;;;;;;4.82;3.90;;;22.00;59.20;;;;;;3146818;28;20052;-75
2021/08/12 03:19:50;;;;;;;6.03;4.40;;;22.00;59.30;;;;;;3146257;28;20037;-75
2021/08/12 03:21:21;;;;;;;4.35;3.95;;;21.90;59.30;;;;;;3146241;28;20053;-75
2021/08/12 03:22:55;;;;;;;4.68;3.95;;;22.00;59.30;;;;;;3143908;28;20049;-75
2021/08/12 03:24:27;;;;;;;4.30;3.90;;;22.00;59.30;;;;;;3138558;28;20055;-75
2021/08/12 03:25:58;;;;;;;3.88;3.55;;;22.00;59.30;;;;;;3146741;28;20486;-74
2021/08/12 03:27:30;;;;;;;3.85;3.53;;;22.00;59.30;;;;;;3146820;28;20134;-75
2021/08/12 03:29:02;;;;;;;5.85;3.72;;;22.00;59.30;;;;;;3146733;28;20057;-75
2021/08/12 03:30:33;;;;;;;4.38;3.97;;;21.90;59.20;;;;;;3144799;28;20049;-75
2021/08/12 03:32:06;;;;;;;5.00;3.83;;;21.90;59.30;;;;;;3146167;28;20509;-74
2021/08/12 03:33:38;;;;;;;4.55;4.05;;;21.90;59.30;;;;;;3146379;28;20075;-75
2021/08/12 03:35:09;;;;;;;4.32;3.92;;;21.90;59.30;;;;;;3146186;28;20509;-75
2021/08/12 03:36:41;;;;;;;4.40;4.00;;;21.90;60.00;;;;;;3146740;28;20075;-75
2021/08/12 03:38:14;;;;;;;4.57;3.92;;;21.90;59.40;;;;;;3146423;28;20044;-75
2021/08/12 03:39:46;;;;;;;5.22;4.28;;;21.90;59.40;;;;;;3146660;28;20051;-75
2021/08/12 03:41:17;;;;;;;4.65;4.00;;;21.90;59.40;;;;;;3151406;28;20040;-75
2021/08/12 03:42:49;;;;;;;4.30;3.63;;;21.90;59.50;;;;;;3146590;28;20044;-75
2021/08/12 03:44:21;;;;;;;4.97;4.00;;;21.90;59.50;;;;;;3146196;28;20049;-74
2021/08/12 03:45:53;;;;;;;4.43;4.03;;;21.90;59.50;;;;;;3146030;28;20049;-75
2021/08/12 03:47:24;;;;;;;4.60;3.85;;;21.90;59.60;;;;;;3147217;28;20864;-75
2021/08/12 03:48:56;;;;;;;3.97;3.58;;;21.90;59.60;;;;;;3146943;28;20504;-74
2021/08/12 03:50:27;;;;;;;4.28;3.83;;;22.00;59.70;;;;;;3145772;28;20336;-75
2021/08/12 03:51:59;;;;;;;4.25;3.85;;;21.90;59.60;;;;;;3147115;28;20497;-75
2021/08/12 03:53:32;;;;;;;3.85;3.45;;;21.90;59.70;;;;;;3147192;28;20063;-75
2021/08/12 03:55:05;;;;;;;4.15;3.75;;;21.90;59.70;;;;;;3146018;28;20041;-74
2021/08/12 03:56:37;;;;;;;4.30;3.90;;;21.90;59.80;;;;;;3147128;28;20474;-75
2021/08/12 03:58:08;;;;;;;4.22;3.83;;;21.90;59.80;;;;;;3146700;28;20489;-74
2021/08/12 03:59:40;;;;;;;4.18;3.78;;;21.90;59.80;;;;;;3146163;28;20051;-75
2021/08/12 04:01:12;;;;;;;5.45;3.92;;;21.90;59.90;;;;;;3144712;28;20067;-75
2021/08/12 04:02:43;;;;;;;4.32;3.92;;;21.90;59.90;;;;;;3146569;28;20048;-75
2021/08/12 04:04:15;;;;;;;4.55;4.10;;;21.90;60.00;;;;;;3146149;28;20075;-75
2021/08/12 04:05:46;;;;;;;4.72;3.65;;;21.90;60.00;;;;;;3146240;28;20433;-75
2021/08/12 04:07:18;;;;;;;4.10;3.70;;;21.90;60.00;;;;;;3146490;28;20529;-75
2021/08/12 04:08:51;;;;;;;4.07;3.67;;;21.90;60.70;;;;;;3147119;28;20056;-74
2021/08/12 04:10:23;;;;;;;4.53;3.80;;;21.90;60.00;;;;;;3145788;28;20048;-75
2021/08/12 04:11:55;;;;;;;5.10;4.18;;;21.90;60.10;;;;;;3146565;28;20099;-75
2021/08/12 04:13:26;;;;;;;4.35;3.85;;;21.90;60.30;;;;;;3146666;28;20045;-75
2021/08/12 04:14:58;;;;;;;4.05;3.60;;;21.90;60.20;;;;;;3145924;28;20055;-76
2021/08/12 04:16:30;;;;;;;4.80;4.00;;;21.80;60.20;;;;;;3145689;28;20052;-75
2021/08/12 04:18:02;;;;;;;5.57;3.90;;;21.90;60.20;;;;;;3146549;28;20057;-75
2021/08/12 04:19:34;;;;;;;4.60;4.05;;;21.90;60.30;;;;;;3146246;28;20090;-76
2021/08/12 04:21:06;;;;;;;4.57;3.90;;;21.80;60.20;;;;;;3146144;28;20049;-75
2021/08/12 04:22:39;;;;;;;5.15;3.80;;;21.90;60.30;;;;;;3146567;28;20044;-75
2021/08/12 04:24:12;;;;;;;;;;;21.90;60.30;;;;;;3144756;28;20143;-76
2021/08/12 04:25:45;;;;;;;3.92;3.58;;;21.90;60.30;;;;;;3145785;28;19920;-75
2021/08/12 04:27:17;;;;;;;4.00;3.60;;;21.90;60.30;;;;;;3143404;28;20056;-75
2021/08/12 04:28:49;;;;;;;4.30;3.90;;;21.90;60.30;;;;;;3146752;28;20052;-75
2021/08/12 04:30:21;;;;;;;5.80;3.78;;;21.90;60.40;;;;;;3150656;28;20493;-75
2021/08/12 04:31:53;;;;;;;4.63;3.80;;;21.90;60.50;;;;;;3158845;28;20047;-75
2021/08/12 04:33:25;;;;;;;4.38;3.97;;;21.90;60.50;;;;;;3159248;28;20052;-75
2021/08/12 04:34:56;;;;;;;4.68;4.10;;;21.90;60.50;;;;;;3151643;28;20494;-75
2021/08/12 04:36:28;;;;;;;4.03;3.70;;;21.80;60.50;;;;;;3146492;28;20060;-75
2021/08/12 04:38:00;;;;;;;4.15;3.75;;;21.80;60.50;;;;;;3146177;28;20486;-75
2021/08/12 04:39:33;;;;;;;4.15;3.75;;;21.90;60.60;;;;;;3146102;28;20517;-75
2021/08/12 04:41:05;;;;;;;4.60;4.00;;;21.80;60.60;;;;;;3145639;28;20064;-75
2021/08/12 04:42:36;;;;;;;5.00;4.47;;;21.80;60.60;;;;;;3144295;28;20053;-75
2021/08/12 04:44:08;;;;;;;5.35;3.63;;;21.80;61.30;;;;;;3146023;28;20052;-75
2021/08/12 04:45:40;;;;;;;5.50;3.60;;;21.80;60.70;;;;;;3145329;28;20713;-75
2021/08/12 04:47:11;;;;;;;4.90;4.00;;;21.80;60.70;;;;;;3145812;28;20040;-75
2021/08/12 04:48:43;;;;;;;4.00;3.60;;;21.90;60.80;;;;;;3146311;28;20053;-75
2021/08/12 04:50:15;;;;;;;4.35;3.95;;;21.80;60.70;;;;;;3154462;28;20051;-75
2021/08/12 04:51:48;;;;;;;4.97;4.25;;;21.90;60.80;;;;;;3158928;28;20069;-75
2021/08/12 04:53:19;;;;;;;;;;;21.80;60.80;;;;;;3158968;28;20048;-75
2021/08/12 04:54:52;;;;;;;4.70;4.20;;;21.90;60.80;;;;;;3157583;28;19978;-75
2021/08/12 04:56:24;;;;;;;4.90;4.10;;;21.80;60.70;;;;;;3159373;28;20048;-75
2021/08/12 04:57:56;;;;;;;4.50;4.10;;;21.80;60.80;;;;;;3171334;28;20052;-75
2021/08/12 04:59:27;;;;;;;4.22;3.80;;;21.80;60.90;;;;;;3170695;28;20055;-75
2021/08/12 05:00:59;;;;;;;5.78;4.20;;;21.80;60.90;;;;;;3155614;28;20063;-75
2021/08/12 05:02:31;;;;;;;4.28;3.88;;;21.80;60.90;;;;;;3147716;28;20098;-75
2021/08/12 05:04:03;;;;;;;7.35;4.32;;;21.90;61.10;;;;;;3144230;28;20087;-75
2021/08/12 05:05:35;;;;;;;5.47;3.85;;;21.90;61.30;;;;;;3132682;28;20529;-75
2021/08/12 05:07:07;;;;;;;5.50;3.50;;;22.00;60.70;;;;;;3138250;28;20072;-74
2021/08/12 05:08:39;;;;;;;9.00;4.20;;;22.10;60.70;;;;;;3143348;28;20102;-75
2021/08/12 05:10:12;;;;;;;7.10;4.00;;;22.10;60.50;;;;;;3154024;28;20043;-74
2021/08/12 05:11:43;;;;;;;11.50;4.57;;;22.30;60.50;;;;;;3157458;28;20501;-75
2021/08/12 05:13:15;;;;;;;7.38;4.20;;;22.20;60.20;;;;;;3157756;28;20500;-75
2021/08/12 05:14:47;;;;;;;22.33;5.00;;;22.10;60.60;;;;;;3166860;28;20515;-75
2021/08/12 05:16:20;;;;;;;10.02;4.40;;;22.10;61.50;;;;;;3158919;28;20047;-75
2021/08/12 05:17:51;;;;;;;10.35;4.38;;;22.10;61.80;;;;;;3151040;28;20136;-75
2021/08/12 05:19:23;;;;;;;11.23;4.00;;;22.20;62.00;;;;;;3147143;28;20595;-75
2021/08/12 05:20:55;;;;;;;11.80;4.28;;;22.10;61.90;;;;;;3158052;28;20861;-75
2021/08/12 05:22:27;;;;;;;28.50;4.35;;;22.20;61.50;;;;;;3157403;28;20408;-75
2021/08/12 05:23:58;;;;;;;8.07;4.00;;;22.30;61.40;;;;;;3158005;28;20048;-75
2021/08/12 05:25:31;;;;;;;10.10;4.50;;;22.30;61.20;;;;;;3157479;28;20075;-75
2021/08/12 05:27:03;;;;;;;10.77;3.97;;;22.40;61.20;;;;;;3157960;28;20055;-75
2021/08/12 05:28:35;;;;;;;19.13;4.63;;;22.40;61.20;;;;;;3157946;28;20489;-75
2021/08/12 05:30:07;;;;;;;12.65;4.22;;;22.40;61.20;;;;;;3155971;28;20043;-76
2021/08/12 05:31:39;;;;;;;11.95;4.22;;;22.30;61.30;;;;;;3144782;28;20045;-75
2021/08/12 11:25:56;;;;;;;7.72;6.60;;;23.20;64.40;;;;;;3158033;27;20198;-76
2021/08/12 11:27:41;;;;;;;9.50;6.47;;;23.10;64.70;;;;;;3160357;28;20048;-75
2021/08/12 11:29:31;;;;;;;9.93;6.47;;;23.20;64.10;;;;;;3166560;28;20047;-74
2021/08/12 11:31:03;;;;;;;10.00;6.43;;;23.30;63.80;;;;;;3164935;27;20127;-76
2021/08/12 11:32:34;;;;;;;8.70;6.10;;;23.40;63.20;;;;;;3156505;28;20052;-74
2021/08/12 11:34:15;;;;;;;7.57;6.18;;;23.40;62.60;;;;;;3164246;28;20040;-75
2021/08/12 11:36:10;;;;;;;8.30;6.35;;;23.50;62.90;;;;;;3156151;28;20040;-75
2021/08/12 11:37:41;;;;;;;6.43;5.82;;;23.50;63.50;;;;;;3161373;28;20055;-75
2021/08/12 11:39:13;;;;;;;6.97;6.07;;;23.50;62.80;;;;;;3163547;28;20047;-76
2021/08/12 11:40:45;;;;;;;7.50;6.03;;;23.50;62.60;;;;;;3159046;28;20047;-75
2021/08/12 11:42:23;;;;;;;9.13;6.53;;;23.50;62.30;;;;;;3167583;28;20454;-75
2021/08/12 11:43:56;;;;;;;7.18;6.13;;;23.60;62.50;;;;;;3166708;28;20052;-75
2021/08/12 11:45:28;;;;;;;7.05;5.82;;;23.70;62.40;;;;;;3146854;28;20044;-75
2021/08/12 11:47:03;;;;;;;11.07;5.63;;;23.80;62.10;;;;;;3156231;28;20051;-75
2021/08/12 11:48:35;;;;;;;7.70;6.03;;;23.90;61.60;;;;;;3156346;28;20505;-75
2021/08/12 11:50:09;;;;;;;7.15;5.88;;;24.00;60.80;;;;;;3155247;28;20047;-75
2021/08/12 11:51:42;;;;;;;7.60;6.05;;;24.00;61.70;;;;;;3155594;28;20055;-75
2021/08/12 11:53:17;;;;;;;7.55;5.75;;;24.00;60.50;;;;;;3155657;28;20062;-75
2021/08/12 11:54:54;;;;;;;6.30;5.70;;;24.10;60.20;;;;;;3155317;28;20044;-75
2021/08/12 11:56:27;;;;;;;7.03;5.95;;;24.10;59.90;;;;;;3155898;28;20044;-75
2021/08/12 11:58:01;;;;;;;6.22;5.63;;;24.10;59.70;;;;;;3156849;28;20044;-75
2021/08/12 11:59:35;;;;;;;8.63;6.10;;;24.20;58.90;;;;;;3155312;28;20052;-75
2021/08/12 12:01:14;;;;;;;6.28;5.68;;;24.30;58.50;;;;;;3160640;28;20040;-75
2021/08/12 12:02:58;;;;;;;6.32;5.70;;;24.30;58.80;;;;;;3168832;28;20079;-75
2021/08/12 12:04:31;;;;;;;6.32;5.65;;;24.30;58.90;;;;;;3167661;28;20102;-75
2021/08/12 12:06:03;;;;;;;6.50;5.70;;;24.40;58.80;;;;;;3168058;28;20047;-75
2021/08/12 12:07:49;;;;;;;6.70;6.10;;;24.40;58.10;;;;;;3168497;28;20052;-76
2021/08/12 12:09:26;;;;;;;7.82;6.28;;;24.40;57.90;;;;;;3168836;28;20136;-76
2021/08/12 12:11:10;;;;;;;6.57;5.43;;;24.30;57.30;;;;;;3166551;28;20116;-76
2021/08/12 12:12:42;;;;;;;9.25;5.78;;;24.30;57.00;;;;;;3162235;28;20052;-75
2021/08/12 12:14:21;;;;;;;6.32;5.43;;;24.40;56.60;;;;;;3154838;28;20070;-76
2021/08/12 12:15:53;;;;;;;7.00;5.25;;;24.40;56.60;;;;;;3155681;28;20166;-75
2021/08/12 12:17:33;;;;;;;6.05;5.30;;;24.40;56.50;;;;;;3155900;28;20690;-75
2021/08/12 12:19:13;;;;;;;5.97;5.35;;;24.40;56.40;;;;;;3155248;28;20062;-75
2021/08/12 12:20:45;;;;;;;6.90;5.70;;;24.40;56.60;;;;;;3142733;28;20055;-75
2021/08/12 12:22:17;;;;;;;6.33;5.50;;;24.40;56.90;;;;;;3143190;28;20148;-75
2021/08/12 12:23:49;;;;;;;6.75;5.72;;;24.40;56.80;;;;;;3143433;28;20418;-75
2021/08/12 12:25:21;;;;;;;6.43;5.75;;;24.50;56.80;;;;;;3142616;28;20041;-75
2021/08/12 12:26:56;;;;;;;9.85;4.80;;;24.40;56.60;;;;;;3143018;28;20517;-75
2021/08/12 12:28:31;;;;;;;5.45;4.88;;;24.40;57.10;;;;;;3143488;28;20056;-75
2021/08/12 12:30:11;;;;;;;6.70;5.93;;;24.40;57.20;;;;;;3143357;28;20524;-75
2021/08/12 12:31:43;;;;;;;6.15;5.53;;;24.50;56.70;;;;;;3155143;28;20052;-75
2021/08/12 12:33:17;;;;;;;6.00;5.40;;;24.50;56.70;;;;;;3154039;28;20421;-75
2021/08/12 12:34:50;;;;;;;5.90;4.97;;;24.40;56.90;;;;;;3149926;28;20044;-75
2021/08/12 12:36:22;;;;;;;;;;;24.40;57.00;;;;;;3152068;28;20482;-75
2021/08/12 12:37:57;;;;;;;5.60;5.05;;;24.40;57.10;;;;;;3146556;28;19926;-75
2021/08/12 12:39:29;;;;;;;7.68;4.90;;;24.30;57.30;;;;;;3145937;28;20056;-75
2021/08/12 12:41:05;;;;;;;6.28;5.40;;;24.30;57.00;;;;;;3145588;28;20143;-75
2021/08/12 12:42:37;;;;;;;5.38;4.80;;;24.30;57.10;;;;;;3146959;28;20051;-75
2021/08/12 12:44:13;;;;;;;6.80;5.10;;;24.40;56.80;;;;;;3146898;28;20053;-75
2021/08/12 12:45:49;;;;;;;5.57;4.80;;;24.50;56.40;;;;;;3158017;28;20076;-75
2021/08/12 12:47:25;;;;;;;5.95;4.82;;;24.50;55.70;;;;;;3159242;28;20048;-75
2021/08/12 12:48:57;;;;;;;5.50;4.53;;;24.60;55.80;;;;;;3159395;28;20071;-75
2021/08/12 12:50:28;;;;;;;8.00;5.25;;;24.60;55.60;;;;;;3157735;28;20449;-75
2021/08/12 12:52:07;;;;;;;6.05;5.03;;;24.70;56.10;;;;;;3159252;28;20052;-75
2021/08/12 12:53:40;;;;;;;9.70;5.30;;;24.70;56.10;;;;;;3159613;28;20342;-75
2021/08/12 12:55:22;;;;;;;5.97;4.90;;;24.70;55.60;;;;;;3158800;28;20048;-75
2021/08/12 12:56:55;;;;;;;6.65;4.82;;;24.70;55.40;;;;;;3159208;28;20093;-75
2021/08/12 12:58:35;;;;;;;5.43;4.93;;;24.70;55.80;;;;;;3159657;28;20493;-75
2021/08/12 13:00:08;;;;;;;5.00;4.50;;;24.70;55.60;;;;;;3155556;28;20297;-76
2021/08/12 13:01:41;;;;;;;5.63;4.75;;;24.70;55.50;;;;;;3155498;28;20048;-75
2021/08/12 13:03:12;;;;;;;5.78;4.78;;;24.70;55.30;;;;;;3159385;28;20043;-75
2021/08/12 13:04:44;;;;;;;5.07;4.53;;;24.70;55.40;;;;;;3158297;28;20044;-76
2021/08/12 13:06:16;;;;;;;5.45;4.60;;;24.70;55.60;;;;;;3159047;28;20064;-76
2021/08/12 13:07:48;;;;;;;6.22;4.68;;;24.70;55.50;;;;;;3158643;28;20052;-75
2021/08/12 13:09:30;;;;;;;6.63;4.72;;;24.70;55.10;;;;;;3158509;28;20044;-75
2021/08/12 13:11:09;;;;;;;5.55;4.82;;;24.70;55.40;;;;;;3157655;28;20052;-75
2021/08/12 13:12:40;;;;;;;5.85;5.05;;;24.80;55.60;;;;;;3158257;28;20149;-75
2021/08/12 13:14:13;;;;;;;5.82;4.50;;;24.80;55.80;;;;;;3157968;28;20048;-75
2021/08/12 13:15:51;;;;;;;;;;;24.80;55.30;;;;;;3152300;28;20063;-75
2021/08/12 13:17:33;;;;;;;5.57;4.85;;;24.90;55.20;;;;;;3151849;28;19920;-75
2021/08/12 13:19:05;;;;;;;5.18;4.68;;;24.90;55.60;;;;;;3154850;28;20048;-75
2021/08/12 13:20:40;;;;;;;6.75;4.70;;;24.90;55.00;;;;;;3156141;28;20060;-75
2021/08/12 13:22:19;;;;;;;5.95;4.95;;;24.90;55.30;;;;;;3157354;28;20054;-75
2021/08/12 13:23:52;;;;;;;5.50;4.93;;;24.90;55.20;;;;;;3157462;28;20051;-75
2021/08/12 13:25:24;;;;;;;5.13;4.20;;;25.00;55.10;;;;;;3156376;28;20059;-75
2021/08/12 13:26:59;;;;;;;5.03;4.43;;;25.00;55.20;;;;;;3157469;28;20055;-75
2021/08/12 13:28:34;;;;;;;7.82;4.72;;;25.10;55.10;;;;;;3158224;28;20055;-75
2021/08/12 13:30:07;;;;;;;5.88;4.38;;;25.10;55.00;;;;;;3155697;28;20560;-76
2021/08/12 13:31:40;;;;;;;5.43;4.57;;;25.00;55.10;;;;;;3147493;28;20048;-75
2021/08/12 13:33:26;;;;;;;5.10;4.30;;;25.00;55.30;;;;;;3149873;28;20044;-75
2021/08/12 13:34:59;;;;;;;7.47;4.65;;;25.00;55.80;;;;;;3157973;28;20056;-75
2021/08/12 13:36:30;;;;;;;4.93;4.40;;;24.90;55.70;;;;;;3158716;28;20040;-75
2021/08/12 13:38:02;;;;;;;6.07;4.60;;;24.90;55.50;;;;;;3157679;28;20048;-75
2021/08/12 13:39:34;;;;;;;6.25;4.93;;;25.00;55.60;;;;;;3158446;28;20052;-75
2021/08/12 13:41:05;;;;;;;5.32;4.53;;;24.90;56.00;;;;;;3158103;28;20048;-75
2021/08/12 13:42:37;;;;;;;5.85;4.78;;;24.70;56.40;;;;;;3157787;28;20064;-75
2021/08/12 13:44:09;;;;;;;7.35;4.90;;;24.70;56.80;;;;;;3158668;28;20059;-75
2021/08/12 13:45:40;;;;;;;8.30;5.18;;;24.70;57.00;;;;;;3157470;28;20044;-75
2021/08/12 13:47:12;;;;;;;7.50;4.95;;;24.70;56.20;;;;;;3158671;28;20059;-75
2021/08/12 13:48:45;;;;;;;5.90;4.97;;;24.80;56.20;;;;;;3157574;28;20059;-75
2021/08/12 13:50:17;;;;;;;6.55;5.22;;;24.90;56.10;;;;;;3156372;28;20048;-75
2021/08/12 13:51:48;;;;;;;5.68;4.47;;;24.90;56.20;;;;;;3146263;28;20049;-75
2021/08/12 13:53:21;;;;;;;5.18;4.50;;;25.00;55.90;;;;;;3145784;28;20048;-75
2021/08/12 13:54:53;;;;;;;6.65;4.70;;;25.00;56.30;;;;;;3145228;28;20064;-75
2021/08/12 13:56:25;;;;;;;5.68;4.45;;;25.10;55.80;;;;;;3148134;28;20048;-75
2021/08/12 13:57:56;;;;;;;4.88;4.35;;;25.20;55.60;;;;;;3159245;28;20062;-75